Strona główna
METAR-TAF:

METAR-TAF

Lotnisko :

Port lotniczy Pieszczany

Pieszczany, Słowacja

Szerokość geograficzna: 48-37-30N, Długość geograficzna: 017-49-43E, wysokość: 163 m

Aktualna obserwacja pogody

Raport powstał 21 minut temu, godzina 21:30 UTC
Wiatr 1 kt z kierunków zmiennych
Temperatura 0°C
Wilgotność 86%
Ciśnienie 999 hPa
Widzialność 10 km lub więcej

METAR: LZPP 242130Z AUTO VRB01KT 9999 OVC110/// M00/M02 Q0999

czas: 22:51 (21:51 UTC)

Prognoza

Raport powstał 4 godziny i 51 minut temu, godzina 17:00 UTC
Prognoza ważna od 24 godzina 18 UTC do 25 godzina 03 UTC
Wiatr 2 kt z kierunków zmiennych
Widzialność 10 km lub więcej
Mało chmury na wysokości 3000 ft
Stopniowe zmiany
od 25 godzina 00 UTC do 25 godzina 02 UTC
Wiatr 6 kt od północ
Przerywane chmury na wysokości 2500 ft

TAF: LZPP 241700Z 2418/2503 VRB02KT 9999 FEW030 BECMG 2500/2502 35006KT BKN025

Obserwacja i prognoza pogody dla ponad 4000 lotnisk (raport METAR i TAF).

Dostępne stacje oznaczono żółtymi i czerwonymi punktami na mapie.

Najedź kursorem aby zobaczyć nazwę stacji.

Kliknij aby zobaczyć obserwacje i prognozy pogody.

Aby zmienić mapę: kliknij na zielony przycisk z czarnym krzyżykiem, aby powiększyć; na zielony przycisk z myślnikiem, aby pomniejszyć; na zielone strzałki, aby przejść do map sąsiednich.


METAR-TAF: